Time;durP1;ratioP1;P1;durP2;ratioP2;P2;SDS_P1;SDS_P2;PMS_P1;PMS_P2;Temp;Humidity;BMP_temperature;BMP_pressure;BME280_temperature;BME280_humidity;BME280_pressure;Samples;Min_cycle;Max_cycle;Signal;HPM_P1;HPM_P2
2022/12/11 05:01:30;;;;;;;41.03;22.73;;;0.40;99.90;;;;;;5442036;23;20549;-75
2022/12/11 05:03:59;;;;;;;45.67;22.60;;;0.30;99.90;;;;;;4928216;29;20738;-76
2022/12/11 05:06:26;;;;;;;38.77;20.83;;;0.20;99.90;;;;;;4927917;29;20954;-75
2022/12/11 05:08:52;;;;;;;37.43;20.53;;;0.30;99.90;;;;;;4928545;29;20958;-73
2022/12/11 05:11:19;;;;;;;44.03;21.87;;;0.40;99.90;;;;;;4928228;29;20834;-73
2022/12/11 05:13:46;;;;;;;39.60;20.50;;;0.50;99.90;;;;;;4928767;29;20468;-73
2022/12/11 05:16:15;;;;;;;33.80;20.40;;;0.40;99.90;;;;;;4928217;29;20546;-75
2022/12/11 05:18:44;;;;;;;44.93;21.57;;;0.30;99.90;;;;;;4928703;29;20469;-75
2022/12/11 05:21:13;;;;;;;39.70;21.07;;;0.30;99.90;;;;;;4928531;29;20524;-75
2022/12/11 05:23:40;;;;;;;40.87;21.13;;;0.30;99.90;;;;;;4928570;29;20466;-75
2022/12/11 05:26:11;;;;;;;42.20;21.40;;;0.20;99.90;;;;;;4927806;29;20836;-75
2022/12/11 05:28:39;;;;;;;42.47;20.93;;;0.10;99.90;;;;;;4928033;29;20466;-76
2022/12/11 05:31:07;;;;;;;39.33;20.40;;;0.10;99.90;;;;;;4927739;29;20478;-75
2022/12/11 05:33:35;;;;;;;42.57;21.93;;;0.10;99.90;;;;;;4928064;29;20903;-76
2022/12/11 05:36:03;;;;;;;44.80;22.70;;;0.10;99.90;;;;;;4927887;29;20459;-75
2022/12/11 05:38:30;;;;;;;44.47;22.57;;;0.00;99.90;;;;;;4927933;29;20457;-76
2022/12/11 05:40:58;;;;;;;42.93;22.17;;;0.00;99.90;;;;;;4927776;29;20804;-75
2022/12/11 05:43:25;;;;;;;40.10;20.47;;;0.00;99.90;;;;;;4927819;29;20465;-75
2022/12/11 05:45:52;;;;;;;45.07;24.17;;;0.00;99.90;;;;;;4927597;29;21123;-76
2022/12/11 05:48:19;;;;;;;40.93;23.10;;;0.00;99.90;;;;;;4928064;29;20884;-75
2022/12/11 05:50:57;;;;;;;40.60;21.43;;;0.00;99.90;;;;;;4927960;29;20860;-75
2022/12/11 05:53:27;;;;;;;45.13;22.57;;;0.00;99.90;;;;;;4928232;29;20466;-75
2022/12/11 05:55:55;;;;;;;38.37;22.20;;;0.00;99.90;;;;;;4927066;29;20980;-75
2022/12/11 05:58:21;;;;;;;42.33;21.07;;;0.00;99.90;;;;;;4928070;29;20878;-75
2022/12/11 06:00:48;;;;;;;40.37;20.57;;;0.00;99.90;;;;;;4927911;29;20497;-75
2022/12/11 06:03:15;;;;;;;41.50;22.47;;;0.00;99.90;;;;;;4927784;29;20619;-76
2022/12/11 06:05:42;;;;;;;46.87;22.77;;;0.00;99.90;;;;;;4928353;29;20929;-75
2022/12/11 06:08:09;;;;;;;43.83;22.63;;;0.00;99.90;;;;;;4927206;29;20462;-76
2022/12/11 06:10:37;;;;;;;40.73;21.27;;;0.00;99.90;;;;;;4928014;29;20482;-74
2022/12/11 06:13:04;;;;;;;47.03;22.50;;;0.00;99.90;;;;;;4928337;29;20955;-68
2022/12/11 06:15:32;;;;;;;46.50;23.67;;;0.00;99.90;;;;;;4928252;29;20458;-70
2022/12/11 06:17:59;;;;;;;44.40;23.33;;;0.00;99.90;;;;;;4927475;29;20458;-69
2022/12/11 06:20:25;;;;;;;43.60;21.63;;;0.00;99.90;;;;;;4927950;29;20494;-77
2022/12/11 06:22:52;;;;;;;49.30;23.70;;;0.00;99.90;;;;;;4927839;29;20498;-74
2022/12/11 06:25:19;;;;;;;44.77;22.13;;;0.00;99.90;;;;;;4930688;29;20458;-73
2022/12/11 06:27:47;;;;;;;43.70;21.70;;;0.00;99.90;;;;;;4930634;29;20466;-73
2022/12/11 06:30:15;;;;;;;41.73;21.03;;;0.00;99.90;;;;;;4931688;29;20465;-74
2022/12/11 06:32:42;;;;;;;42.17;21.43;;;0.10;99.90;;;;;;4931206;29;20517;-75
2022/12/11 06:35:09;;;;;;;45.97;22.90;;;0.20;99.90;;;;;;4931099;29;20458;-76
2022/12/11 06:37:36;;;;;;;48.03;23.57;;;0.20;99.90;;;;;;4930655;29;20468;-74
2022/12/11 06:40:04;;;;;;;46.00;23.03;;;0.20;99.90;;;;;;4931945;29;20488;-73
2022/12/11 06:42:31;;;;;;;43.03;22.00;;;0.30;99.90;;;;;;4931345;29;20502;-74
2022/12/11 06:44:59;;;;;;;43.37;24.03;;;0.30;99.90;;;;;;4930942;29;20458;-74
2022/12/11 06:47:26;;;;;;;45.90;23.40;;;0.30;99.90;;;;;;4930849;29;21248;-74
2022/12/11 06:49:53;;;;;;;42.07;22.50;;;0.30;99.90;;;;;;4931184;29;20514;-75
2022/12/11 06:52:20;;;;;;;44.10;22.00;;;0.40;99.90;;;;;;4929507;29;20837;-75
2022/12/11 06:54:47;;;;;;;48.47;25.10;;;0.40;99.90;;;;;;4930109;29;20466;-76
2022/12/11 06:57:15;;;;;;;42.83;23.30;;;0.40;99.90;;;;;;4930080;29;20470;-75
2022/12/11 06:59:42;;;;;;;45.50;22.40;;;0.50;99.90;;;23.48;0.00;147135.91;4930384;29;20481;-76
2022/12/11 07:02:13;;;;;;;44.37;24.03;;;0.40;99.90;;;;;;4930351;29;20911;-76
2022/12/11 07:04:40;;;;;;;44.50;23.50;;;0.40;99.90;;;;;;4930634;29;20882;-76
2022/12/11 07:07:07;;;;;;;44.70;22.60;;;0.40;99.90;;;;;;4930356;29;20462;-75
2022/12/11 07:09:34;;;;;;;41.60;21.83;;;0.40;99.90;;;;;;4930811;29;20465;-75
2022/12/11 07:12:02;;;;;;;40.80;22.07;;;0.40;99.90;;;-0.25;nan;97507.00;4931116;29;20478;-75
2022/12/11 07:14:30;;;;;;;42.80;21.27;;;0.40;99.90;;;-0.23;nan;97507.94;4931503;29;20461;-78
2022/12/11 07:16:57;;;;;;;47.17;20.87;;;0.40;99.90;;;-0.15;nan;97515.91;4932116;29;20890;-78
2022/12/11 07:19:26;;;;;;;39.60;21.93;;;0.50;99.90;;;-0.26;nan;97511.97;4931764;29;20458;-76
2022/12/11 07:21:53;;;;;;;42.57;21.83;;;0.40;99.90;;;-0.15;nan;97511.72;4931346;29;20512;-75
2022/12/11 07:24:20;;;;;;;40.53;21.33;;;0.50;99.90;;;-0.12;nan;97526.13;4931017;29;20467;-76
2022/12/11 07:26:47;;;;;;;43.60;22.60;;;0.50;99.90;;;-0.11;nan;97520.28;4929956;29;20465;-76
2022/12/11 07:29:14;;;;;;;46.07;21.47;;;0.50;99.90;;;-0.19;nan;97521.59;4930486;29;20451;-76
2022/12/11 07:31:42;;;;;;;43.93;21.40;;;0.50;99.90;;;-0.33;nan;97523.41;4930367;29;20475;-76
2022/12/11 07:34:12;;;;;;;40.90;21.60;;;0.40;99.90;;;-0.38;nan;97524.84;4930549;29;20951;-76
2022/12/11 07:36:41;;;;;;;40.97;20.57;;;0.40;99.90;;;-0.54;nan;97523.19;4929824;29;20506;-76
2022/12/11 07:39:08;;;;;;;43.57;21.20;;;0.30;99.90;;;-0.73;nan;97540.69;4931051;29;20458;-76
2022/12/11 07:41:35;;;;;;;48.20;22.17;;;0.20;99.90;;;;;;4930426;29;20900;-76
2022/12/11 07:44:02;;;;;;;44.13;21.80;;;0.10;99.90;;;;;;4930490;29;20798;-75
2022/12/11 07:46:31;;;;;;;46.70;22.63;;;0.10;99.90;;;;;;4930148;29;20462;-76
2022/12/11 07:48:59;;;;;;;48.53;24.30;;;0.10;99.90;;;;;;4930807;29;20458;-76
2022/12/11 07:51:28;;;;;;;51.00;23.10;;;0.10;99.90;;;;;;4930678;29;20485;-76
2022/12/11 07:53:59;;;;;;;50.37;24.20;;;0.00;99.90;;;;;;4930440;29;20455;-75
2022/12/11 07:56:26;;;;;;;50.50;25.50;;;0.00;99.90;;;;;;4930120;29;20461;-76
2022/12/11 07:58:53;;;;;;;53.00;23.97;;;0.00;99.90;;;;;;4930771;29;20462;-76
2022/12/11 08:01:22;;;;;;;46.63;24.10;;;0.00;99.90;;;;;;4930392;29;20502;-76
2022/12/11 08:03:50;;;;;;;51.97;24.80;;;-0.10;99.90;;;;;;4928186;29;20458;-76
2022/12/11 08:06:17;;;;;;;54.97;26.13;;;0.00;99.90;;;;;;4928388;29;21587;-75
2022/12/11 08:08:44;;;;;;;52.70;24.90;;;-0.10;99.90;;;;;;4929317;29;20513;-77
2022/12/11 08:11:14;;;;;;;51.27;24.37;;;-0.10;99.90;;;;;;4928935;29;20489;-76
2022/12/11 08:13:42;;;;;;;47.10;25.07;;;-0.10;99.90;;;;;;4929127;29;20469;-76
2022/12/11 08:16:11;;;;;;;53.03;26.17;;;0.00;99.90;;;;;;4909627;29;20802;-76
2022/12/11 08:18:38;;;;;;;52.93;24.13;;;0.10;99.90;;;;;;4909779;29;20459;-76
2022/12/11 08:21:06;;;;;;;51.40;23.60;;;0.10;99.90;;;;;;4909908;29;20494;-76
2022/12/11 08:23:33;;;;;;;50.63;25.13;;;0.00;99.90;;;;;;4909707;29;20541;-76
2022/12/11 08:26:02;;;;;;;46.77;23.40;;;0.10;99.90;;;;;;4909000;29;20455;-76
2022/12/11 08:28:31;;;;;;;52.67;26.10;;;0.10;99.90;;;;;;4909165;29;20818;-76
2022/12/11 08:30:58;;;;;;;51.00;25.67;;;0.10;99.90;;;;;;4909803;29;20512;-76
2022/12/11 08:33:25;;;;;;;54.67;26.00;;;0.10;99.90;;;;;;4910123;29;20464;-77
2022/12/11 08:35:52;;;;;;;53.80;26.70;;;0.10;99.90;;;;;;4910190;29;20459;-75
2022/12/11 08:38:18;;;;;;;53.57;25.70;;;0.20;99.90;;;;;;4909664;29;20463;-78
2022/12/11 08:40:45;;;;;;;49.77;25.60;;;0.30;99.90;;;;;;4911025;29;20481;-74
2022/12/11 08:43:12;;;;;;;58.70;27.00;;;0.30;99.90;;;;;;4909649;29;20499;-74
2022/12/11 08:45:40;;;;;;;49.93;27.30;;;0.40;99.90;;;;;;4909098;29;20459;-75
2022/12/11 08:48:07;;;;;;;50.27;25.70;;;0.50;99.90;;;;;;4907508;29;20463;-74
2022/12/11 08:50:34;;;;;;;54.00;26.93;;;0.50;99.90;;;;;;4909265;29;20854;-76
2022/12/11 08:53:01;;;;;;;53.43;26.33;;;0.60;99.90;;;;;;4909064;29;20462;-76
2022/12/11 08:55:27;;;;;;;50.70;26.07;;;0.60;99.90;;;;;;4909562;29;20454;-76
2022/12/11 08:57:54;;;;;;;56.73;25.50;;;0.60;99.90;;;;;;4908765;29;20463;-76
2022/12/11 09:00:21;;;;;;;47.97;23.70;;;0.60;99.90;;;;;;4909274;29;20474;-74
2022/12/11 09:02:49;;;;;;;47.70;24.30;;;0.60;99.90;;;;;;4909834;29;20885;-75
2022/12/11 09:05:16;;;;;;;44.70;23.43;;;0.50;99.90;;;;;;4910109;29;20459;-76
2022/12/11 09:07:43;;;;;;;53.90;25.97;;;0.50;99.90;;;;;;4909403;29;20463;-75
2022/12/11 09:10:10;;;;;;;48.20;24.47;;;0.40;99.90;;;;;;4910185;29;20512;-75
2022/12/11 09:12:37;;;;;;;51.43;24.70;;;0.30;99.90;;;;;;4909521;29;20475;-73
2022/12/11 09:15:05;;;;;;;52.30;25.40;;;0.30;99.90;;;;;;4909857;29;20486;-74
2022/12/11 09:17:33;;;;;;;50.60;25.47;;;0.30;99.90;;;;;;4909206;29;20463;-74
2022/12/11 09:20:01;;;;;;;46.17;22.87;;;0.20;99.90;;;;;;4910049;29;20458;-74
2022/12/11 09:22:28;;;;;;;48.33;23.83;;;0.20;99.90;;;;;;4909711;29;20507;-74
2022/12/11 09:24:55;;;;;;;50.97;23.17;;;0.10;99.90;;;;;;4909679;29;20497;-74
2022/12/11 09:27:22;;;;;;;41.43;21.90;;;0.10;99.90;;;;;;4909426;29;20478;-73
2022/12/11 09:29:49;;;;;;;44.37;22.90;;;0.00;99.90;;;;;;4910179;29;20502;-74
2022/12/11 09:32:16;;;;;;;53.90;22.67;;;0.00;99.90;;;;;;4909380;29;20471;-74
2022/12/11 09:34:43;;;;;;;42.13;23.03;;;0.00;99.90;;;;;;4909388;29;20462;-74
2022/12/11 09:37:11;;;;;;;46.37;23.43;;;0.00;99.90;;;;;;4909020;29;20463;-75
2022/12/11 09:39:38;;;;;;;46.47;22.90;;;0.00;99.90;;;;;;4909394;29;20495;-67
2022/12/11 09:42:14;;;;;;;51.40;24.97;;;0.00;99.90;;;;;;4909119;29;21037;-67
2022/12/11 09:44:45;;;;;;;48.73;25.23;;;0.00;99.90;;;;;;4909551;29;20446;-69
2022/12/11 09:47:21;;;;;;;54.83;25.60;;;0.10;99.90;;;;;;4908329;29;20908;-73
2022/12/11 09:49:54;;;;;;;57.03;28.27;;;0.10;99.90;;;;;;4909634;29;20497;-73
2022/12/11 09:52:28;;;;;;;51.23;25.60;;;0.10;99.90;;;;;;4909440;29;20470;-73
2022/12/11 09:54:59;;;;;;;60.30;27.50;;;0.10;99.90;;;;;;4909877;29;20447;-74
2022/12/11 09:57:43;;;;;;;57.47;28.80;;;0.20;99.90;;;;;;4909640;29;20442;-74
2022/12/11 10:00:19;;;;;;;59.20;28.33;;;0.20;99.90;;;;;;4913975;29;20451;-74
2022/12/11 10:02:59;;;;;;;59.40;29.93;;;0.30;99.90;;;;;;4913952;29;20498;-72
2022/12/11 10:05:33;;;;;;;55.07;26.83;;;0.30;99.90;;;;;;4913559;29;20499;-74
2022/12/11 10:08:05;;;;;;;54.37;27.60;;;0.30;99.90;;;;;;4913453;29;20495;-75
2022/12/11 10:10:41;;;;;;;53.23;27.33;;;0.30;99.90;;;;;;4913232;29;20459;-73
2022/12/11 10:13:16;;;;;;;64.23;25.67;;;0.20;99.90;;;;;;4913132;29;20486;-73
2022/12/11 10:15:49;;;;;;;50.83;24.40;;;0.20;99.90;;;;;;4912947;29;20445;-73
2022/12/11 10:18:20;;;;;;;50.77;24.20;;;0.20;99.90;;;;;;4912948;29;20446;-74
2022/12/11 10:20:48;;;;;;;47.53;23.83;;;0.20;99.90;;;;;;4913175;29;20999;-73
2022/12/11 10:23:19;;;;;;;45.33;22.80;;;0.10;99.90;;;;;;4912789;29;21420;-73
2022/12/11 10:25:51;;;;;;;53.43;24.40;;;0.20;99.90;;;;;;4913898;29;20542;-74
2022/12/11 10:28:19;;;;;;;46.10;22.30;;;0.10;99.90;;;;;;4914947;29;21069;-74
2022/12/11 10:30:51;;;;;;;50.70;22.50;;;0.00;99.90;;;;;;4915997;29;20474;-74
2022/12/11 10:33:21;;;;;;;42.50;20.77;;;0.00;99.90;;;;;;4915880;29;20505;-78
2022/12/11 10:35:51;;;;;;;52.67;23.23;;;0.00;99.90;;;;;;4914247;29;20502;-75
2022/12/11 10:38:26;;;;;;;44.30;20.40;;;0.10;99.90;;;;;;4913450;29;20463;-74
2022/12/11 10:40:55;;;;;;;43.93;22.37;;;0.10;99.90;;;;;;4913633;29;20478;-75
2022/12/11 10:43:33;;;;;;;47.20;20.03;;;0.00;99.90;;;;;;4914538;29;20501;-75
2022/12/11 10:46:00;;;;;;;45.37;22.03;;;0.00;99.90;;;;;;4914664;29;20458;-75
2022/12/11 10:48:27;;;;;;;46.40;20.87;;;0.10;99.90;;;;;;4914178;29;20459;-76
2022/12/11 10:51:00;;;;;;;43.90;21.27;;;0.10;99.90;;;;;;4913988;29;20479;-75
2022/12/11 10:53:28;;;;;;;39.40;20.13;;;0.10;99.90;;;;;;4913677;29;20497;-75
2022/12/11 10:55:57;;;;;;;50.83;24.13;;;0.10;99.90;;;;;;4913289;29;20463;-75
2022/12/11 10:58:26;;;;;;;48.87;23.10;;;0.20;99.90;;;;;;4913485;29;20454;-75
2022/12/11 11:01:04;;;;;;;43.30;21.23;;;0.20;99.90;;;;;;4912240;29;20514;-75
2022/12/11 11:03:33;;;;;;;45.60;21.93;;;0.20;99.90;;;;;;4912817;29;20461;-75
2022/12/11 11:06:05;;;;;;;48.00;23.60;;;0.10;99.90;;;;;;4912257;29;20558;-74
2022/12/11 11:08:41;;;;;;;46.67;23.50;;;0.10;99.90;;;;;;4912620;29;20470;-73
2022/12/11 11:11:25;;;;;;;49.47;21.90;;;0.20;99.90;;;;;;4911906;29;20471;-74
2022/12/11 11:14:03;;;;;;;52.83;24.20;;;0.20;99.90;;;;;;4912333;29;20574;-74
2022/12/11 11:16:30;;;;;;;52.87;25.33;;;0.20;99.90;;;;;;4912577;29;20444;-73
2022/12/11 11:18:58;;;;;;;46.07;21.93;;;0.20;99.90;;;;;;4912926;29;20467;-74
2022/12/11 11:21:27;;;;;;;46.70;22.30;;;0.30;99.90;;;;;;4912582;29;21066;-73
2022/12/11 11:23:55;;;;;;;52.07;23.23;;;0.40;99.90;;;;;;4912412;29;20562;-70
2022/12/11 11:26:22;;;;;;;49.03;23.33;;;0.40;99.90;;;;;;4911292;29;20459;-70
2022/12/11 11:28:52;;;;;;;45.27;23.47;;;0.40;99.90;;;;;;4911840;29;20459;-74
2022/12/11 11:31:21;;;;;;;48.23;23.17;;;0.30;99.90;;;;;;4910729;29;20475;-75
2022/12/11 11:33:55;;;;;;;44.00;21.37;;;0.30;99.90;;;;;;4911807;29;20495;-74
2022/12/11 11:36:24;;;;;;;44.67;22.10;;;0.30;99.90;;;;;;4911329;29;20462;-73
2022/12/11 11:39:10;;;;;;;47.10;23.87;;;0.40;99.90;;;;;;4911700;29;20462;-73
2022/12/11 11:41:51;;;;;;;41.67;20.77;;;0.40;99.90;;;;;;4911324;29;20477;-74
2022/12/11 11:44:24;;;;;;;43.20;21.90;;;0.50;99.90;;;;;;4911715;29;20968;-73
2022/12/11 11:46:59;;;;;;;48.47;22.60;;;0.40;99.90;;;;;;4911391;29;20470;-75
2022/12/11 11:49:35;;;;;;;46.07;22.53;;;0.40;99.90;;;;;;4912173;29;20454;-76
2022/12/11 11:52:12;;;;;;;48.63;23.73;;;0.50;99.90;;;;;;4911072;29;20474;-76
2022/12/11 11:54:47;;;;;;;44.13;21.50;;;0.50;99.90;;;;;;4911273;29;20503;-75
2022/12/11 11:57:20;;;;;;;44.43;21.20;;;0.40;99.90;;;;;;4910996;29;20545;-76
2022/12/11 11:59:52;;;;;;;47.37;22.17;;;0.40;99.90;;;;;;4911748;29;20459;-76
2022/12/11 12:02:19;;;;;;;48.10;23.40;;;0.30;99.90;;;;;;4910554;29;20491;-69
2022/12/11 12:04:48;;;;;;;49.70;22.80;;;0.30;99.90;;;;;;4920052;29;20444;-77
2022/12/11 12:07:27;;;;;;;45.20;22.80;;;0.40;99.90;;;;;;4925064;29;20458;-76
2022/12/11 12:10:03;;;;;;;48.40;22.77;;;0.40;99.90;;;;;;4922228;29;20841;-77
2022/12/11 12:12:40;;;;;;;48.63;22.93;;;0.40;99.90;;;;;;4929625;29;20476;-76
2022/12/11 12:15:29;;;;;;;52.07;23.10;;;0.40;99.90;;;;;;4930747;29;20802;-79
2022/12/11 12:17:58;;;;;;;47.63;23.40;;;0.50;99.90;;;;;;4931406;29;20498;-78
2022/12/11 12:20:34;;;;;;;42.07;20.73;;;0.50;99.90;;;;;;4931693;29;20473;-77
2022/12/11 12:23:23;;;;;;;45.03;19.83;;;0.60;99.90;;;;;;4930853;29;20457;-77
2022/12/11 12:25:59;;;;;;;51.17;21.80;;;0.70;99.90;;;;;;4932894;29;20501;-78
2022/12/11 12:28:36;;;;;;;40.33;21.00;;;0.70;99.90;;;;;;4932825;29;20446;-75
2022/12/11 12:31:14;;;;;;;47.77;23.33;;;0.70;99.90;;;;;;4930928;29;21230;-76
2022/12/11 12:33:53;;;;;;;53.70;21.90;;;0.70;99.90;;;;;;4921578;29;21010;-77
2022/12/11 12:36:30;;;;;;;48.87;23.80;;;0.70;99.90;;;;;;4915710;29;20459;-76
2022/12/11 12:39:02;;;;;;;44.73;22.13;;;0.70;99.90;;;;;;4917681;29;20949;-74
2022/12/11 12:41:40;;;;;;;41.80;21.33;;;0.80;99.90;;;;;;4919573;29;21182;-74
2022/12/11 12:44:14;;;;;;;47.17;20.87;;;0.80;99.90;;;;;;4927402;29;20846;-74
2022/12/11 12:46:51;;;;;;;39.83;19.13;;;0.90;99.90;;;;;;4930610;29;20946;-72
2022/12/11 12:49:28;;;;;;;42.97;19.80;;;0.90;99.90;;;;;;4931310;29;20446;-75
2022/12/11 12:51:56;;;;;;;38.60;19.27;;;0.90;99.90;;;;;;4931101;29;20482;-74
2022/12/11 12:54:26;;;;;;;36.10;18.87;;;1.00;99.90;;;;;;4931031;29;20870;-73
2022/12/11 12:56:55;;;;;;;46.30;22.40;;;1.10;99.90;;;;;;4930322;29;20458;-74
2022/12/11 12:59:24;;;;;;;36.73;18.17;;;1.20;99.90;;;;;;4931048;29;20462;-73
2022/12/11 13:01:55;;;;;;;34.87;18.20;;;1.20;99.90;;;;;;4930530;29;21002;-75
2022/12/11 13:04:36;;;;;;;40.00;20.50;;;1.20;99.90;;;;;;4931179;29;20450;-73
2022/12/11 13:07:13;;;;;;;35.17;18.80;;;1.30;99.90;;;;;;4929874;29;20469;-73
2022/12/11 13:09:39;;;;;;;40.43;19.70;;;1.30;99.90;;;;;;4924661;29;20431;-74
2022/12/11 13:12:15;;;;;;;38.83;18.97;;;1.30;99.90;;;;;;4930393;29;20478;-73
2022/12/11 13:14:42;;;;;;;39.33;19.70;;;1.40;99.90;;;;;;4930679;29;20488;-75
2022/12/11 13:17:37;;;;;;;37.40;18.50;;;1.30;99.90;;;;;;4929696;29;20549;-74
2022/12/11 13:20:15;;;;;;;37.93;19.47;;;1.40;99.90;;;;;;4929032;29;20544;-74
2022/12/11 13:22:51;;;;;;;39.03;18.30;;;1.40;99.90;;;;;;4929761;29;20471;-75
2022/12/11 13:25:22;;;;;;;32.80;17.03;;;1.30;99.90;;;;;;4930077;29;20454;-74
2022/12/11 13:27:50;;;;;;;34.53;17.53;;;1.30;99.90;;;;;;4930090;29;20431;-75
2022/12/11 13:30:25;;;;;;;29.20;15.53;;;1.30;99.90;;;;;;4923359;29;20541;-75
2022/12/11 13:33:01;;;;;;;31.57;16.30;;;1.30;99.90;;;;;;4919825;29;20541;-75
2022/12/11 13:35:29;;;;;;;29.17;15.70;;;1.40;99.90;;;;;;4927651;29;20456;-79
2022/12/11 13:38:01;;;;;;;35.43;17.30;;;1.40;99.90;;;;;;4917420;29;20548;-73
2022/12/11 13:40:33;;;;;;;37.60;18.57;;;1.40;99.90;;;;;;4925656;29;20541;-76
2022/12/11 13:43:05;;;;;;;38.23;19.20;;;1.40;99.90;;;;;;4920458;29;20470;-71
2022/12/11 13:45:37;;;;;;;36.50;17.83;;;1.30;99.90;;;;;;4918832;29;20446;-72
2022/12/11 13:48:11;;;;;;;33.50;17.77;;;1.40;99.90;;;;;;4912229;29;20834;-72
2022/12/11 13:50:42;;;;;;;33.00;17.33;;;1.30;99.90;;;;;;4908408;29;20487;-72
2022/12/11 13:53:16;;;;;;;36.40;17.10;;;1.20;99.90;;;;;;4908078;29;20459;-71
2022/12/11 13:55:44;;;;;;;31.40;17.47;;;1.30;99.90;;;;;;4912697;29;20458;-71
2022/12/11 13:58:20;;;;;;;35.50;16.37;;;1.30;99.90;;;;;;4907285;29;20546;-72
2022/12/11 14:01:02;;;;;;;29.70;16.20;;;1.40;99.90;;;;;;4927209;29;20489;-72
2022/12/11 14:03:31;;;;;;;30.87;15.17;;;1.40;99.90;;;;;;4927447;29;20443;-71
2022/12/11 14:05:58;;;;;;;31.20;15.50;;;1.40;99.90;;;;;;4909793;29;20459;-74
2022/12/11 14:08:32;;;;;;;30.73;15.70;;;1.50;99.90;;;;;;4907846;29;20466;-72
2022/12/11 14:10:59;;;;;;;29.23;15.90;;;1.50;99.90;;;;;;4908062;29;20990;-72
2022/12/11 14:13:35;;;;;;;33.10;17.17;;;1.50;99.90;;;;;;4907694;29;20647;-71
2022/12/11 14:16:02;;;;;;;30.40;15.00;;;1.40;99.90;;;;;;4917704;29;20448;-69
2022/12/11 14:18:34;;;;;;;25.10;13.30;;;1.20;99.90;;;23.80;0.00;146116.28;4927285;29;20469;-74
2022/12/11 14:21:03;;;;;;;29.10;15.63;;;1.20;99.90;;;;;;4928393;29;20557;-74
2022/12/11 14:23:31;;;;;;;31.10;15.13;;;1.10;99.90;;;;;;4926073;29;20581;-72
2022/12/11 14:26:00;;;;;;;29.27;14.40;;;1.00;99.90;;;;;;4923956;29;20458;-71
2022/12/11 14:28:30;;;;;;;26.57;13.93;;;1.00;99.90;;;;;;4928211;29;20458;-72
2022/12/11 14:31:01;;;;;;;32.67;15.23;;;1.00;99.90;;;-143.14;0.00;146116.28;4928824;29;20497;-72
2022/12/11 14:33:32;;;;;;;30.40;15.10;;;1.10;99.90;;;;;;4928069;29;21193;-71
2022/12/11 14:36:00;;;;;;;32.03;15.70;;;1.10;99.90;;;;;;4928241;29;20443;-72
2022/12/11 14:38:32;;;;;;;30.47;15.37;;;1.00;99.90;;;;;;4927850;29;20819;-72
2022/12/11 14:41:03;;;;;;;31.77;15.07;;;1.00;99.90;;;;;;4927900;29;20490;-72
2022/12/11 14:43:36;;;;;;;31.10;15.50;;;1.00;99.90;;;;;;4928676;29;20446;-72
2022/12/11 14:46:10;;;;;;;31.97;15.57;;;1.00;99.90;;;;;;4929906;29;20840;-72
2022/12/11 14:48:43;;;;;;;27.60;14.60;;;1.00;99.90;;;;;;4932164;29;20454;-75
2022/12/11 14:51:14;;;;;;;26.03;14.20;;;1.00;99.90;;;;;;4931643;29;20510;-74
2022/12/11 14:53:44;;;;;;;23.97;14.17;;;1.10;99.90;;;;;;4931730;29;20498;-74
2022/12/11 14:56:17;;;;;;;34.13;15.57;;;1.10;99.90;;;;;;4931286;29;20462;-74
2022/12/11 14:58:55;;;;;;;26.77;14.03;;;1.10;99.90;;;;;;4931283;29;20468;-71
2022/12/11 15:01:24;;;;;;;29.30;15.00;;;1.10;99.90;;;;;;4930738;29;20485;-73
2022/12/11 15:04:02;;;;;;;32.53;15.57;;;1.10;99.90;;;;;;4931177;29;20455;-76
2022/12/11 15:06:31;;;;;;;30.33;15.50;;;1.10;99.90;;;;;;4931384;29;20458;-75
2022/12/11 15:09:09;;;;;;;29.17;15.33;;;1.10;99.90;;;;;;4932621;29;20473;-74
2022/12/11 15:11:36;;;;;;;29.60;14.77;;;1.10;99.90;;;;;;4932714;29;20478;-75
2022/12/11 15:14:05;;;;;;;29.37;15.80;;;1.10;99.90;;;;;;4932349;29;20497;-73
2022/12/11 15:16:36;;;;;;;31.27;14.47;;;1.20;99.90;;;;;;4929799;29;20517;-73
2022/12/11 15:19:03;;;;;;;27.07;15.20;;;1.20;99.90;;;;;;4931903;29;20489;-71
2022/12/11 15:21:32;;;;;;;24.53;14.57;;;1.20;99.90;;;;;;4931159;29;20470;-71
2022/12/11 15:24:02;;;;;;;28.27;14.43;;;1.30;99.90;;;;;;4931558;29;20450;-72
2022/12/11 15:26:35;;;;;;;30.10;14.33;;;1.30;99.90;;;;;;4930507;29;20941;-74
2022/12/11 15:29:05;;;;;;;27.10;15.17;;;1.20;99.90;;;;;;4918613;29;20462;-74
2022/12/11 15:31:33;;;;;;;27.63;14.93;;;1.20;99.90;;;;;;4931985;29;20489;-74
2022/12/11 15:34:00;;;;;;;31.67;14.70;;;1.20;99.90;;;;;;4931915;29;20853;-71
2022/12/11 15:36:33;;;;;;;29.70;13.93;;;1.20;99.90;;;;;;4929901;29;20471;-66
2022/12/11 15:39:00;;;;;;;22.80;13.27;;;1.10;99.90;;;;;;4929381;29;20880;-67
2022/12/11 15:41:32;;;;;;;33.60;16.87;;;1.10;99.90;;;;;;4928940;29;20482;-70
2022/12/11 15:44:01;;;;;;;29.70;15.37;;;1.10;99.90;;;;;;4929541;29;20462;-70
2022/12/11 15:46:30;;;;;;;29.03;16.10;;;1.10;99.90;;;;;;4928645;29;20462;-74
2022/12/11 15:48:57;;;;;;;29.40;15.20;;;1.00;99.90;;;;;;4929078;29;20951;-75
2022/12/11 15:51:26;;;;;;;26.80;14.40;;;1.10;99.90;;;;;;4928091;29;20474;-75
2022/12/11 15:53:53;;;;;;;27.07;14.20;;;1.10;99.90;;;;;;4914784;29;20543;-76
2022/12/11 15:56:19;;;;;;;34.50;16.33;;;1.10;99.90;;;;;;4911497;29;20478;-76
2022/12/11 15:58:47;;;;;;;27.37;14.47;;;1.10;99.90;;;;;;4911651;29;20459;-77
2022/12/11 16:01:14;;;;;;;24.83;13.50;;;1.10;99.90;;;;;;4911988;29;20494;-74
2022/12/11 16:03:42;;;;;;;41.80;19.20;;;1.10;99.90;;;;;;4912357;29;20462;-76
2022/12/11 16:06:12;;;;;;;61.00;32.63;;;1.10;99.90;;;;;;4914405;29;20455;-76
2022/12/11 16:08:38;;;;;;;36.63;21.40;;;1.30;99.90;;;;;;4928717;29;20211;-76
2022/12/11 16:11:05;;;;;;;46.90;24.73;;;1.30;99.90;;;;;;4932274;29;20485;-76
2022/12/11 16:13:32;;;;;;;42.03;21.10;;;1.40;99.90;;;;;;4924532;29;20463;-76
2022/12/11 16:15:59;;;;;;;37.87;19.83;;;1.40;99.90;;;;;;4930399;29;21025;-77
2022/12/11 16:18:26;;;;;;;33.80;16.37;;;1.40;99.90;;;;;;4923209;29;20450;-74
2022/12/11 16:20:54;;;;;;;27.17;15.00;;;1.30;99.90;;;;;;4923587;29;20489;-76
2022/12/11 16:23:21;;;;;;;27.80;15.93;;;1.30;99.90;;;;;;4937345;29;20468;-75
2022/12/11 16:25:48;;;;;;;26.10;14.70;;;1.30;99.90;;;;;;4942992;29;20456;-73
2022/12/11 16:28:16;;;;;;;31.03;16.13;;;1.40;99.90;;;;;;4932946;29;20477;-73
2022/12/11 16:30:45;;;;;;;28.60;15.63;;;1.30;99.90;;;;;;4931413;29;20568;-72
2022/12/11 16:33:12;;;;;;;28.63;15.30;;;1.40;99.90;;;;;;4931398;29;20454;-73
2022/12/11 16:35:40;;;;;;;27.90;14.37;;;1.30;99.90;;;;;;4927942;29;20495;-77
2022/12/11 16:38:08;;;;;;;24.63;13.60;;;1.30;99.90;;;;;;4910836;29;20463;-73
2022/12/11 16:40:35;;;;;;;30.07;15.00;;;1.30;99.90;;;;;;4910452;29;20476;-68
2022/12/11 16:43:03;;;;;;;30.70;14.80;;;1.30;99.90;;;;;;4910071;29;20467;-67
2022/12/11 16:45:31;;;;;;;25.33;13.60;;;1.20;99.90;;;;;;4910469;29;20546;-73
2022/12/11 16:47:57;;;;;;;30.43;15.17;;;1.20;99.90;;;;;;4911587;29;20956;-79
2022/12/11 16:50:24;;;;;;;29.30;16.23;;;1.20;99.90;;;;;;4913571;29;20466;-76
2022/12/11 16:52:51;;;;;;;31.57;16.40;;;1.20;99.90;;;;;;4930315;29;20473;-70
2022/12/11 16:55:21;;;;;;;28.43;14.60;;;1.20;99.90;;;;;;4928926;29;20503;-70
2022/12/11 16:57:48;;;;;;;30.90;16.17;;;1.20;99.90;;;;;;4914953;29;20455;-74
2022/12/11 17:00:16;;;;;;;31.03;16.47;;;1.20;99.90;;;;;;4911594;29;20455;-75
2022/12/11 17:02:42;;;;;;;31.83;16.17;;;1.30;99.90;;;;;;4910773;29;20894;-75
2022/12/11 17:05:09;;;;;;;32.10;16.10;;;1.30;99.90;;;;;;4911722;29;20469;-75
2022/12/11 17:07:36;;;;;;;34.73;16.83;;;1.20;99.90;;;;;;4910042;29;20854;-77
2022/12/11 17:10:04;;;;;;;30.00;16.80;;;1.20;99.90;;;;;;4911286;29;20922;-75
2022/12/11 17:12:32;;;;;;;30.47;16.20;;;1.10;99.90;;;;;;4911278;29;20475;-74
2022/12/11 17:14:58;;;;;;;31.63;17.10;;;1.10;99.90;;;;;;4910785;29;20491;-74
2022/12/11 17:17:25;;;;;;;35.93;17.20;;;1.20;99.90;;;;;;4909959;29;20460;-73
2022/12/11 17:19:52;;;;;;;38.17;18.50;;;1.20;99.90;;;;;;4910526;29;20470;-73
2022/12/11 17:22:19;;;;;;;33.17;18.17;;;1.20;99.90;;;;;;4911936;29;20483;-74
2022/12/11 17:24:46;;;;;;;37.47;19.93;;;1.10;99.90;;;;;;4919535;29;20450;-73
2022/12/11 17:27:13;;;;;;;35.13;18.00;;;1.10;99.90;;;;;;4917017;29;20530;-70
2022/12/11 17:29:42;;;;;;;35.27;18.23;;;1.00;99.90;;;;;;4916825;29;20458;-74
2022/12/11 17:32:08;;;;;;;33.00;17.23;;;0.90;99.90;;;;;;4918708;29;20473;-74
2022/12/11 17:34:36;;;;;;;31.60;16.40;;;0.90;99.90;;;;;;4920208;29;21102;-75
2022/12/11 17:37:02;;;;;;;37.07;18.67;;;0.90;99.90;;;;;;4916216;29;20463;-78
2022/12/11 17:39:30;;;;;;;35.00;18.13;;;0.90;99.90;;;;;;4911684;29;20800;-74
2022/12/11 17:41:56;;;;;;;38.90;19.90;;;0.90;99.90;;;;;;4911381;29;21014;-75